Time;durP1;ratioP1;P1;durP2;ratioP2;P2;SDS_P1;SDS_P2;PMS_P1;PMS_P2;Temp;Humidity;BMP_temperature;BMP_pressure;BME280_temperature;BME280_humidity;BME280_pressure;Samples;Min_cycle;Max_cycle;Signal;HPM_P1;HPM_P2
2022/07/09 00:00:23;;;;;;;8.70;5.88;;;17.70;99.90;;;;;;5035193;28;20472;-33
2022/07/09 00:02:49;;;;;;;9.52;4.95;;;17.70;99.90;;;;;;5037861;28;20428;-47
2022/07/09 00:05:14;;;;;;;10.02;5.35;;;17.60;99.90;;;;;;5035787;28;20021;-39
2022/07/09 00:07:40;;;;;;;9.63;6.57;;;17.60;99.90;;;;;;5032954;28;20063;-29
2022/07/09 00:10:06;;;;;;;12.02;6.15;;;17.60;99.90;;;;;;5032832;28;20029;-32
2022/07/09 00:12:32;;;;;;;16.30;6.43;;;17.60;99.90;;;;;;5017117;28;20037;-37
2022/07/09 00:14:58;;;;;;;9.30;5.70;;;17.50;99.90;;;;;;5035030;28;20052;-38
2022/07/09 00:17:25;;;;;;;10.27;6.40;;;17.50;99.90;;;;;;5034431;28;20029;-36
2022/07/09 00:19:51;;;;;;;12.23;6.68;;;17.50;99.90;;;;;;5042356;28;20491;-29
2022/07/09 00:22:17;;;;;;;8.70;5.50;;;17.50;99.90;;;;;;5035094;28;20026;-30
2022/07/09 00:24:42;;;;;;;11.20;6.47;;;17.50;99.90;;;;;;5034359;28;20113;-29
2022/07/09 00:27:08;;;;;;;10.07;6.65;;;17.40;99.90;;;;;;5034631;28;20466;-30
2022/07/09 00:29:33;;;;;;;11.70;6.13;;;17.40;99.90;;;;;;5034494;28;20018;-35
2022/07/09 00:31:59;;;;;;;12.82;6.13;;;17.40;99.90;;;;;;5035030;28;20508;-34
2022/07/09 00:34:24;;;;;;;10.60;6.22;;;17.40;99.90;;;;;;5037755;28;20025;-31
2022/07/09 00:36:50;;;;;;;11.98;5.80;;;17.30;99.90;;;;;;5033028;28;20025;-35
2022/07/09 00:39:16;;;;;;;10.88;6.60;;;17.30;99.90;;;;;;5033541;28;20378;-33
2022/07/09 00:41:41;;;;;;;10.63;6.72;;;17.30;99.90;;;;;;5034349;28;20049;-28
2022/07/09 00:44:07;;;;;;;6.93;5.68;;;17.20;99.90;;;;;;5034404;28;20104;-34
2022/07/09 00:46:32;;;;;;;9.82;5.88;;;17.20;99.90;;;;;;5034031;28;20045;-33
2022/07/09 00:49:03;;;;;;;9.50;6.60;;;17.20;99.90;;;;;;5015701;28;20484;-30
2022/07/09 00:51:30;;;;;;;18.73;8.32;;;17.20;99.90;;;;;;5032865;28;20112;-37
2022/07/09 00:53:56;;;;;;;18.52;9.32;;;17.10;99.90;;;;;;5034031;28;20041;-39
2022/07/09 00:56:23;;;;;;;11.13;7.13;;;17.10;99.90;;;;;;5033130;28;20109;-32
2022/07/09 00:58:50;;;;;;;9.77;6.00;;;17.10;99.90;;;;;;5033766;28;20540;-34
2022/07/09 01:01:16;;;;;;;20.63;9.75;;;17.20;99.90;;;;;;5034013;28;20034;-30
2022/07/09 01:03:42;;;;;;;13.35;8.55;;;17.10;99.90;;;;;;5016069;28;20060;-31
2022/07/09 01:06:08;;;;;;;15.65;9.52;;;17.10;99.90;;;;;;5019266;28;20018;-33
2022/07/09 01:08:34;;;;;;;17.20;8.85;;;17.10;99.90;;;;;;5033857;28;20076;-34
2022/07/09 01:11:00;;;;;;;14.05;8.30;;;17.10;99.90;;;;;;5033662;28;20041;-31
2022/07/09 01:13:26;;;;;;;13.73;7.82;;;17.20;99.90;;;;;;5033492;28;20071;-30
2022/07/09 01:15:52;;;;;;;21.38;8.82;;;17.20;99.90;;;;;;5034074;28;20037;-33
2022/07/09 01:18:19;;;;;;;18.30;9.32;;;17.20;99.90;;;;;;5033422;28;20025;-35
2022/07/09 01:20:44;;;;;;;16.20;9.27;;;17.20;99.90;;;;;;5035448;28;20470;-31
2022/07/09 01:23:10;;;;;;;11.82;7.70;;;17.20;99.90;;;;;;5014884;28;20052;-30
2022/07/09 01:25:46;;;;;;;17.35;8.15;;;17.20;99.90;;;;;;5013758;28;20036;-35
2022/07/09 01:28:12;;;;;;;13.98;8.43;;;17.20;99.90;;;;;;5032368;28;20120;-30
2022/07/09 01:30:39;;;;;;;15.35;8.23;;;17.20;99.90;;;;;;5033379;28;20484;-33
2022/07/09 01:33:05;;;;;;;18.30;9.30;;;17.20;99.90;;;;;;5032018;28;20390;-35
2022/07/09 01:35:30;;;;;;;12.45;8.13;;;17.20;99.90;;;;;;5031904;28;20029;-39
2022/07/09 01:37:56;;;;;;;19.73;9.52;;;17.10;99.90;;;;;;5023674;28;20037;-39
2022/07/09 01:40:22;;;;;;;23.67;10.65;;;17.10;99.90;;;;;;5032518;28;20475;-37
2022/07/09 01:42:48;;;;;;;16.98;9.50;;;17.10;99.90;;;;;;5020312;28;20025;-38
2022/07/09 01:45:15;;;;;;;17.80;9.95;;;17.10;99.90;;;;;;5032386;28;20525;-37
2022/07/09 01:47:42;;;;;;;17.95;8.70;;;17.10;99.90;;;;;;5033949;28;20354;-39
2022/07/09 01:50:09;;;;;;;17.87;11.10;;;17.10;99.90;;;;;;5034354;28;20025;-39
2022/07/09 01:52:35;;;;;;;17.85;9.93;;;17.10;99.90;;;;;;5033636;28;20401;-39
2022/07/09 01:55:00;;;;;;;18.15;9.63;;;17.10;99.90;;;;;;5032642;28;20017;-39
2022/07/09 01:57:26;;;;;;;18.63;10.45;;;17.10;99.90;;;;;;5033375;28;20033;-39
2022/07/09 01:59:52;;;;;;;17.92;9.50;;;17.10;99.90;;;;;;5032921;28;20512;-39
2022/07/09 02:02:18;;;;;;;16.45;9.80;;;17.10;99.90;;;;;;5015156;28;20029;-38
2022/07/09 02:04:45;;;;;;;15.52;10.38;;;17.10;99.90;;;;;;5032913;28;20366;-29
2022/07/09 02:07:12;;;;;;;18.60;10.13;;;17.00;99.90;;;;;;5034772;28;20067;-32
2022/07/09 02:09:38;;;;;;;20.70;9.32;;;17.00;99.90;;;;;;5032782;28;20028;-32
2022/07/09 02:12:04;;;;;;;18.92;10.02;;;17.00;99.90;;;;;;5033224;28;20026;-33
2022/07/09 02:14:30;;;;;;;14.27;8.70;;;17.00;99.90;;;;;;5034136;28;20024;-31
2022/07/09 02:16:55;;;;;;;16.10;9.13;;;17.00;99.90;;;;;;5010990;28;20139;-30
2022/07/09 02:19:21;;;;;;;16.05;9.32;;;17.00;99.90;;;;;;5032550;28;20027;-38
2022/07/09 02:21:47;;;;;;;17.70;9.70;;;17.00;99.90;;;;;;5033114;28;20023;-39
2022/07/09 02:24:12;;;;;;;13.82;9.15;;;17.00;99.90;;;;;;5031293;28;20477;-36
2022/07/09 02:26:38;;;;;;;17.05;9.65;;;16.90;99.90;;;;;;5026667;28;20026;-39
2022/07/09 02:29:04;;;;;;;13.38;8.30;;;16.90;99.90;;;;;;5027040;28;20026;-39
2022/07/09 02:31:30;;;;;;;18.70;10.52;;;16.90;99.90;;;;;;5031813;28;20388;-40
2022/07/09 02:33:56;;;;;;;15.07;9.70;;;16.90;99.90;;;;;;5013807;28;20176;-39
2022/07/09 02:36:22;;;;;;;20.95;10.63;;;16.90;99.90;;;;;;5031534;28;20084;-41
2022/07/09 02:38:47;;;;;;;15.93;9.73;;;16.90;99.90;;;;;;5030874;28;20033;-39
2022/07/09 02:41:13;;;;;;;20.20;9.98;;;16.90;99.90;;;;;;5013883;28;20091;-39
2022/07/09 02:43:42;;;;;;;25.42;11.35;;;16.90;99.90;;;;;;5030462;28;20116;-56
2022/07/09 02:46:08;;;;;;;17.42;9.80;;;16.90;99.90;;;;;;5030610;28;20033;-32
2022/07/09 02:48:33;;;;;;;19.45;10.07;;;16.90;99.90;;;;;;5029325;28;20478;-31
2022/07/09 02:51:00;;;;;;;19.13;10.70;;;17.00;99.90;;;;;;5030041;28;20072;-31
2022/07/09 02:53:26;;;;;;;17.83;10.75;;;17.00;99.90;;;;;;5029765;28;20026;-32
2022/07/09 02:55:52;;;;;;;27.52;10.68;;;17.10;99.90;;;;;;5031673;28;20056;-31
2022/07/09 02:58:18;;;;;;;19.73;9.52;;;17.00;99.90;;;;;;5030073;28;20112;-32
2022/07/09 03:00:43;;;;;;;19.02;10.05;;;17.00;99.90;;;;;;5027772;28;20030;-35
2022/07/09 03:03:09;;;;;;;21.10;10.55;;;17.10;99.90;;;;;;5032703;28;20033;-30
2022/07/09 03:05:35;;;;;;;23.08;10.82;;;17.00;99.90;;;;;;5010347;28;20030;-31
2022/07/09 03:08:01;;;;;;;20.17;11.55;;;17.00;99.90;;;;;;5032371;28;20033;-29
2022/07/09 03:10:27;;;;;;;15.93;9.60;;;17.00;99.90;;;;;;5034702;28;20147;-32
2022/07/09 03:12:52;;;;;;;17.77;9.80;;;17.00;99.90;;;;;;5041382;28;20048;-31
2022/07/09 03:15:18;;;;;;;16.17;9.55;;;17.10;99.90;;;;;;5032305;28;20033;-29
2022/07/09 03:17:44;;;;;;;25.80;11.10;;;17.00;99.90;;;;;;5033622;28;20029;-31
2022/07/09 03:20:10;;;;;;;24.52;11.60;;;17.00;99.90;;;;;;5033849;28;20108;-48
2022/07/09 03:22:36;;;;;;;18.08;11.48;;;17.00;99.90;;;;;;5034034;28;20529;-40
2022/07/09 03:25:03;;;;;;;19.42;10.52;;;17.00;99.90;;;;;;5034183;28;20096;-39
2022/07/09 03:27:28;;;;;;;17.05;10.85;;;17.00;99.90;;;;;;5036377;28;20431;-39
2022/07/09 03:29:54;;;;;;;18.08;10.98;;;17.00;99.90;;;;;;5035373;28;20104;-33
2022/07/09 03:32:19;;;;;;;19.55;9.93;;;17.00;99.90;;;;;;5035177;28;20037;-35
2022/07/09 03:34:45;;;;;;;17.80;9.80;;;16.90;99.90;;;;;;5036179;28;20474;-31
2022/07/09 03:37:10;;;;;;;16.40;9.73;;;17.00;99.90;;;;;;5033606;28;20025;-36
2022/07/09 03:39:36;;;;;;;18.25;9.90;;;17.00;99.90;;;;;;5017857;28;20048;-49
2022/07/09 03:42:02;;;;;;;24.45;11.30;;;17.00;99.90;;;;;;5035952;28;20021;-37
2022/07/09 03:44:28;;;;;;;23.77;11.75;;;17.00;99.90;;;;;;5036167;28;20518;-39
2022/07/09 03:46:53;;;;;;;23.38;12.05;;;17.00;99.90;;;;;;5018030;28;20176;-37
2022/07/09 03:49:19;;;;;;;23.15;12.63;;;17.00;99.90;;;;;;5034088;28;20477;-40
2022/07/09 03:51:44;;;;;;;22.95;11.98;;;17.10;99.90;;;;;;5033448;28;20495;-39
2022/07/09 03:54:10;;;;;;;23.00;12.68;;;17.10;99.90;;;;;;5034830;28;20036;-38
2022/07/09 03:56:36;;;;;;;25.95;12.48;;;17.20;99.90;;;;;;5034446;28;20528;-34
2022/07/09 03:59:02;;;;;;;17.63;11.00;;;17.20;99.90;;;;;;5013614;28;20474;-33
2022/07/09 04:01:28;;;;;;;25.65;12.15;;;17.20;99.90;;;;;;5035312;28;20084;-34
2022/07/09 04:03:53;;;;;;;24.30;12.02;;;17.20;99.90;;;;;;5035522;28;20057;-33
2022/07/09 04:06:20;;;;;;;19.25;10.65;;;17.20;99.90;;;;;;5035583;28;20029;-33
2022/07/09 04:08:45;;;;;;;18.20;9.43;;;17.20;99.90;;;;;;5034069;28;20025;-34
2022/07/09 04:11:11;;;;;;;14.15;8.45;;;17.30;99.90;;;;;;5035508;28;20159;-40
2022/07/09 04:13:37;;;;;;;20.88;11.05;;;17.40;99.90;;;;;;5035406;28;20029;-38
2022/07/09 04:16:03;;;;;;;17.13;9.93;;;17.40;99.90;;;;;;5031227;28;20482;-37
2022/07/09 04:18:28;;;;;;;17.27;9.30;;;17.50;99.90;;;;;;5017461;28;20106;-35
2022/07/09 04:20:54;;;;;;;13.38;9.43;;;17.50;99.90;;;;;;5032649;28;20150;-41
2022/07/09 04:23:20;;;;;;;14.93;8.18;;;17.60;99.90;;;;;;5033491;28;20386;-29
2022/07/09 04:25:47;;;;;;;18.60;10.15;;;17.50;99.90;;;;;;5034702;28;20021;-48
2022/07/09 04:28:13;;;;;;;18.13;10.95;;;17.50;99.90;;;;;;5035423;28;20029;-39
2022/07/09 04:30:39;;;;;;;17.38;10.77;;;17.50;99.90;;;;;;5036334;28;20022;-39
2022/07/09 04:33:04;;;;;;;16.08;9.75;;;17.50;99.90;;;;;;5030632;28;20034;-38
2022/07/09 04:35:30;;;;;;;21.63;10.23;;;17.50;99.90;;;;;;5034539;28;20040;-32
2022/07/09 04:37:56;;;;;;;15.07;8.52;;;17.50;99.90;;;;;;5035221;28;20056;-35
2022/07/09 04:40:21;;;;;;;17.98;10.23;;;17.60;99.90;;;;;;5034800;28;20486;-48
2022/07/09 04:42:47;;;;;;;17.58;9.85;;;17.60;99.90;;;;;;5032596;28;20030;-39
2022/07/09 04:45:12;;;;;;;15.50;9.73;;;17.70;99.90;;;;;;5035697;28;20025;-39
2022/07/09 04:47:38;;;;;;;15.50;8.73;;;17.70;99.90;;;;;;5033165;28;20561;-35
2022/07/09 04:50:04;;;;;;;19.42;10.98;;;17.70;99.90;;;;;;5033208;28;20031;-39
2022/07/09 04:52:30;;;;;;;15.48;9.15;;;17.80;99.90;;;;;;5034692;28;20034;-39
2022/07/09 04:54:56;;;;;;;14.93;8.93;;;17.80;99.90;;;;;;5033913;28;20037;-39
2022/07/09 04:57:21;;;;;;;14.75;8.30;;;17.80;99.90;;;;;;5033196;28;20112;-39
2022/07/09 04:59:47;;;;;;;15.55;9.18;;;17.90;99.90;;;;;;5033560;28;20060;-38
2022/07/09 05:02:13;;;;;;;17.48;10.00;;;17.90;99.90;;;;;;5037037;28;20029;-37
2022/07/09 05:04:39;;;;;;;18.45;9.80;;;18.00;99.90;;;;;;5016242;28;20029;-41
2022/07/09 05:07:05;;;;;;;14.20;8.50;;;18.00;99.90;;;;;;5032169;28;20052;-39
2022/07/09 05:09:31;;;;;;;14.15;8.07;;;18.00;99.90;;;;;;5034277;28;20504;-39
2022/07/09 05:11:57;;;;;;;21.05;10.70;;;18.00;99.90;;;;;;5033682;28;20017;-39
2022/07/09 05:14:22;;;;;;;18.67;10.63;;;18.00;99.90;;;;;;5007466;28;20103;-39
2022/07/09 05:16:48;;;;;;;14.52;8.90;;;18.00;99.90;;;;;;5032853;28;20036;-36
2022/07/09 05:19:14;;;;;;;19.60;10.35;;;18.10;99.90;;;;;;5034851;28;20021;-48
2022/07/09 05:21:40;;;;;;;17.70;10.20;;;18.10;99.90;;;;;;5043580;28;20041;-40
2022/07/09 05:24:07;;;;;;;13.50;7.90;;;18.20;99.90;;;;;;5022636;28;20021;-39
2022/07/09 05:26:33;;;;;;;14.63;9.88;;;18.20;99.90;;;;;;5034061;28;20092;-39
2022/07/09 05:28:58;;;;;;;13.90;8.30;;;18.30;99.90;;;;;;5016451;28;20504;-38
2022/07/09 05:31:24;;;;;;;23.77;12.35;;;18.30;99.90;;;;;;5034530;28;20065;-38
2022/07/09 05:33:51;;;;;;;17.20;9.57;;;18.30;99.90;;;;;;5032107;28;20026;-33
2022/07/09 05:36:17;;;;;;;13.13;8.30;;;18.30;99.90;;;;;;5032884;28;20029;-36
2022/07/09 05:38:43;;;;;;;15.63;8.85;;;18.30;99.90;;;;;;5032976;28;20040;-31
2022/07/09 05:41:10;;;;;;;16.63;10.38;;;18.40;99.90;;;;;;5031776;28;20033;-33
2022/07/09 05:43:36;;;;;;;23.17;10.80;;;18.40;99.90;;;;;;5016413;28;20617;-35
2022/07/09 05:46:02;;;;;;;19.70;11.35;;;18.40;99.90;;;;;;5028704;28;20041;-39
2022/07/09 05:48:27;;;;;;;18.73;10.48;;;18.50;99.90;;;;;;5031814;28;20021;-39
2022/07/09 05:50:54;;;;;;;17.60;9.93;;;18.60;99.90;;;;;;5032744;28;20025;-36
2022/07/09 05:53:20;;;;;;;21.97;10.27;;;18.60;99.90;;;;;;5033992;28;20033;-39
2022/07/09 05:55:46;;;;;;;15.30;8.63;;;18.60;99.90;;;;;;5031890;28;20694;-39
2022/07/09 05:58:12;;;;;;;19.90;10.05;;;18.60;99.90;;;;;;5033490;28;20018;-39
2022/07/09 06:00:37;;;;;;;17.33;9.18;;;18.60;99.90;;;;;;5032111;28;20167;-41
2022/07/09 06:03:03;;;;;;;16.17;9.18;;;18.60;99.90;;;;;;5018087;28;20114;-46
2022/07/09 06:05:28;;;;;;;13.77;8.07;;;18.60;99.90;;;;;;5027068;28;20029;-39
2022/07/09 06:07:54;;;;;;;14.60;8.75;;;18.60;99.90;;;;;;5033070;28;20025;-40
2022/07/09 06:10:20;;;;;;;13.13;8.00;;;18.80;99.90;;;;;;5025243;28;20068;-38
2022/07/09 06:12:45;;;;;;;14.88;8.82;;;18.90;99.90;;;;;;5033230;28;20034;-39
2022/07/09 06:15:12;;;;;;;14.23;9.20;;;19.00;99.90;;;;;;5030254;28;20481;-38
2022/07/09 06:17:37;;;;;;;12.05;7.63;;;19.00;99.90;;;;;;5031123;28;20040;-39
2022/07/09 06:20:04;;;;;;;13.13;7.38;;;19.10;99.90;;;;;;5030761;28;20029;-38
2022/07/09 06:22:30;;;;;;;18.27;8.75;;;19.20;99.90;;;;;;5029615;28;20029;-39
2022/07/09 06:24:56;;;;;;;13.27;7.45;;;19.40;99.90;;;;;;5032303;28;20025;-36
2022/07/09 06:27:21;;;;;;;11.35;7.38;;;19.50;99.90;;;;;;5027896;28;20026;-36
2022/07/09 06:29:47;;;;;;;9.88;6.93;;;19.70;99.90;;;;;;5030931;28;20060;-39
2022/07/09 06:32:13;;;;;;;12.18;8.00;;;19.70;99.90;;;;;;5029911;28;20037;-41
2022/07/09 06:34:38;;;;;;;13.40;7.82;;;19.60;99.90;;;;;;5030456;28;20397;-39
2022/07/09 06:37:04;;;;;;;13.35;8.50;;;19.60;99.90;;;;;;5031175;28;20496;-39
2022/07/09 06:39:45;;;;;;;15.45;8.95;;;19.50;99.90;;;;;;5034382;28;20025;-39
2022/07/09 06:42:14;;;;;;;11.10;7.55;;;19.50;99.90;;;;;;5031066;28;20025;-39
2022/07/09 06:44:40;;;;;;;14.27;7.05;;;19.40;99.90;;;;;;5032392;28;20121;-38
2022/07/09 06:47:06;;;;;;;13.88;8.85;;;19.50;99.90;;;;;;5029015;28;20116;-38
2022/07/09 06:49:33;;;;;;;14.10;8.57;;;19.40;99.90;;;;;;5036052;28;20036;-36
2022/07/09 06:51:59;;;;;;;13.77;7.38;;;19.30;99.90;;;;;;5037741;28;20060;-38
2022/07/09 06:54:25;;;;;;;15.70;8.07;;;19.30;99.90;;;;;;5034363;28;20033;-34
2022/07/09 06:56:51;;;;;;;14.85;9.05;;;19.40;99.90;;;;;;5036078;28;20485;-38
2022/07/09 06:59:18;;;;;;;17.92;8.60;;;19.40;99.90;;;;;;5034913;28;20029;-53
2022/07/09 07:01:46;;;;;;;14.07;7.18;;;19.60;99.90;;;;;;5033859;28;20029;-38
2022/07/09 07:04:12;;;;;;;16.50;8.00;;;19.70;99.90;;;;;;5036096;28;20036;-68
2022/07/09 07:06:38;;;;;;;12.45;7.45;;;20.00;99.90;;;;;;5035312;28;20032;-39
2022/07/09 07:09:04;;;;;;;14.43;7.70;;;20.90;99.90;;;;;;5036576;28;20026;-38
2022/07/09 07:11:30;;;;;;;12.30;7.50;;;22.00;99.90;;;;;;5030323;28;20088;-39
2022/07/09 07:13:55;;;;;;;13.07;7.20;;;22.70;99.90;;;;;;5023797;28;20092;-40
2022/07/09 07:16:21;;;;;;;13.85;8.23;;;23.20;99.90;;;;;;5036424;28;20095;-37
2022/07/09 07:18:47;;;;;;;11.25;6.80;;;23.40;99.90;;;;;;5036429;28;20036;-31
2022/07/09 07:21:12;;;;;;;10.85;6.85;;;22.90;99.90;;;;;;5036360;28;20021;-28
2022/07/09 07:23:38;;;;;;;10.68;6.43;;;22.40;99.90;;;;;;5018524;28;20122;-31
2022/07/09 07:26:03;;;;;;;13.05;8.18;;;21.90;99.90;;;;;;5036317;28;20087;-29
2022/07/09 07:28:29;;;;;;;12.80;8.48;;;22.00;99.90;;;;;;5035532;28;20108;-33
2022/07/09 07:30:55;;;;;;;10.32;7.53;;;22.00;99.90;;;;;;5036396;28;20022;-33
2022/07/09 07:33:21;;;;;;;11.43;7.95;;;22.00;99.90;;;;;;5036127;28;20021;-31
2022/07/09 07:35:47;;;;;;;13.13;8.23;;;21.70;99.90;;;;;;5036106;28;20093;-32
2022/07/09 07:38:13;;;;;;;11.45;8.52;;;21.30;99.90;;;;;;5035969;28;20021;-31
2022/07/09 07:40:38;;;;;;;15.45;9.18;;;20.90;99.90;;;;;;5035873;28;20033;-33
2022/07/09 07:43:04;;;;;;;16.55;8.93;;;20.40;99.90;;;;;;5036196;28;20484;-32
2022/07/09 07:45:31;;;;;;;16.85;9.50;;;20.10;99.90;;;;;;5034826;28;20022;-33
2022/07/09 07:47:56;;;;;;;13.68;8.48;;;19.90;99.90;;;;;;5035874;28;20048;-32
2022/07/09 07:50:22;;;;;;;13.15;8.48;;;19.80;99.90;;;;;;5036123;28;20548;-32
2022/07/09 07:52:48;;;;;;;16.95;7.72;;;19.80;99.90;;;;;;5035799;28;20036;-35
2022/07/09 07:55:14;;;;;;;15.48;7.70;;;19.70;99.90;;;;;;5035820;28;20108;-34
2022/07/09 07:57:40;;;;;;;15.20;7.40;;;19.80;99.90;;;;;;5035569;28;20035;-31
2022/07/09 08:00:06;;;;;;;14.55;7.50;;;19.80;99.90;;;;;;5034703;28;20065;-33
2022/07/09 08:02:34;;;;;;;12.45;6.75;;;20.00;99.90;;;;;;5035431;28;20029;-32
2022/07/09 08:05:00;;;;;;;23.83;6.38;;;20.10;99.90;;;;;;5032882;28;20470;-32
2022/07/09 08:07:26;;;;;;;6.85;5.35;;;20.00;99.90;;;;;;5033073;28;20540;-33
2022/07/09 08:09:51;;;;;;;8.35;5.95;;;20.10;99.90;;;;;;5034550;28;20048;-32
2022/07/09 08:12:17;;;;;;;14.75;5.93;;;20.10;99.90;;;;;;5033463;28;20018;-35
2022/07/09 08:14:42;;;;;;;7.97;4.55;;;20.20;99.90;;;;;;5033681;28;20564;-34
2022/07/09 08:17:08;;;;;;;8.07;5.10;;;20.10;99.90;;;;;;5033495;28;20028;-32
2022/07/09 08:19:34;;;;;;;8.30;4.78;;;20.10;99.90;;;;;;5032393;28;20022;-33
2022/07/09 08:21:59;;;;;;;7.00;3.88;;;20.10;99.90;;;;;;5034604;28;20538;-32
2022/07/09 08:24:26;;;;;;;6.30;3.90;;;20.00;99.90;;;;;;5034128;28;20030;-40
2022/07/09 08:26:52;;;;;;;4.40;2.90;;;20.00;99.90;;;;;;5035111;28;20064;-31
2022/07/09 08:29:17;;;;;;;8.57;3.17;;;20.00;99.90;;;;;;5035266;28;20080;-31
2022/07/09 08:31:43;;;;;;;3.90;2.72;;;20.10;99.90;;;;;;5035040;28;20074;-35
2022/07/09 08:34:08;;;;;;;6.18;2.72;;;20.20;99.90;;;;;;5034994;28;20532;-30
2022/07/09 08:36:34;;;;;;;4.82;2.55;;;20.30;99.90;;;;;;5033933;28;20040;-40
2022/07/09 08:39:00;;;;;;;3.25;2.15;;;20.40;99.90;;;;;;5035035;28;20444;-41
2022/07/09 08:41:25;;;;;;;3.22;1.70;;;20.40;99.90;;;;;;5034546;28;20032;-39
2022/07/09 08:43:52;;;;;;;3.75;1.58;;;20.40;99.90;;;;;;5035097;28;20037;-39
2022/07/09 08:46:18;;;;;;;5.75;1.45;;;20.20;99.90;;;;;;5034580;28;20041;-39
2022/07/09 08:48:45;;;;;;;1.45;1.35;;;20.20;99.90;;;;;;5034821;28;20042;-40
2022/07/09 08:51:13;;;;;;;1.52;1.05;;;20.20;99.90;;;;;;5034672;28;20428;-40
2022/07/09 08:53:42;;;;;;;2.67;1.30;;;20.20;99.90;;;;;;5016264;28;20056;-39
2022/07/09 08:56:08;;;;;;;1.23;1.13;;;20.30;99.90;;;;;;5034422;28;20026;-39
2022/07/09 08:58:34;;;;;;;3.13;1.60;;;20.40;99.90;;;;;;5034700;28;20121;-40
2022/07/09 09:01:00;;;;;;;2.80;1.60;;;20.40;99.90;;;;;;5034817;28;20112;-39
2022/07/09 09:03:26;;;;;;;2.42;1.55;;;20.30;99.90;;;;;;5034407;28;20021;-39
2022/07/09 09:06:06;;;;;;;3.35;1.63;;;20.50;99.90;;;;;;5034760;28;20025;-44
2022/07/09 09:08:39;;;;;;;3.33;1.42;;;20.60;99.90;;;;;;5034651;28;20022;-40
2022/07/09 09:11:19;;;;;;;2.03;1.30;;;20.70;99.90;;;;;;5033558;28;20084;-40
2022/07/09 09:13:47;;;;;;;3.35;1.40;;;20.80;99.90;;;;;;5034407;28;20048;-40
2022/07/09 09:16:16;;;;;;;2.30;1.45;;;20.80;99.90;;;;;;5034197;28;20091;-40
2022/07/09 09:18:43;;;;;;;2.63;1.35;;;21.00;99.90;;;;;;5034367;28;20033;-58
2022/07/09 09:21:10;;;;;;;;;;;21.10;99.90;;;;;;5034858;28;20061;-40
2022/07/09 09:23:47;;;;;;;1.38;1.27;;;21.20;99.90;;;;;;5034365;28;20369;-39
2022/07/09 09:26:18;;;;;;;1.63;1.52;;;21.20;99.90;;;;;;5033034;28;20025;-40
2022/07/09 09:28:51;;;;;;;1.40;0.98;;;21.30;99.90;;;;;;5033498;28;20461;-39
2022/07/09 09:31:28;;;;;;;1.35;1.10;;;21.60;99.90;;;;;;5032838;28;20057;-40
2022/07/09 09:33:57;;;;;;;3.30;1.27;;;21.80;99.90;;;;;;5033038;28;20038;-38
2022/07/09 09:36:34;;;;;;;1.85;1.08;;;21.90;99.90;;;;;;5032784;28;20436;-39
2022/07/09 09:39:22;;;;;;;1.58;1.30;;;21.90;99.90;;;;;;5033808;28;20071;-39
2022/07/09 09:41:53;;;;;;;1.13;0.73;;;21.70;99.90;;;;;;5033754;28;20088;-40
2022/07/09 09:44:26;;;;;;;2.03;1.10;;;21.50;99.90;;;;;;5033206;28;20029;-39
2022/07/09 09:46:53;;;;;;;3.70;1.10;;;21.20;99.90;;;;;;5033415;28;20041;-40
2022/07/09 09:49:19;;;;;;;1.33;1.05;;;21.30;99.90;;;;;;5033990;28;20299;-40
2022/07/09 09:51:54;;;;;;;4.43;0.98;;;21.10;99.90;;;;;;5033659;28;20120;-40
2022/07/09 09:54:21;;;;;;;1.50;0.90;;;21.10;99.90;;;;;;5033553;28;20493;-39
2022/07/09 09:56:48;;;;;;;2.72;1.33;;;21.20;99.90;;;;;;5033902;28;20405;-40
2022/07/09 09:59:14;;;;;;;3.75;1.23;;;21.10;99.90;;;;;;5033644;28;20120;-40
2022/07/09 10:01:41;;;;;;;1.38;1.27;;;21.00;99.90;;;;;;5032393;28;20060;-40
2022/07/09 10:04:08;;;;;;;2.40;1.23;;;20.90;99.90;;;;;;5033657;28;20104;-39
2022/07/09 10:06:34;;;;;;;1.45;1.10;;;20.70;99.90;;;;;;5033505;28;20025;-40
2022/07/09 10:09:02;;;;;;;1.92;1.30;;;20.60;99.90;;;;;;5033306;28;20551;-40
2022/07/09 10:11:41;;;;;;;5.38;2.05;;;20.60;99.90;;;;;;5033545;28;20386;-38
2022/07/09 10:14:08;;;;;;;3.47;1.50;;;20.60;99.90;;;;;;5032972;28;20029;-40
2022/07/09 10:16:38;;;;;;;1.65;1.50;;;20.70;99.90;;;;;;5033512;28;20482;-40
2022/07/09 10:19:04;;;;;;;2.08;0.95;;;20.70;99.90;;;;;;5032524;28;20385;-39
2022/07/09 10:21:35;;;;;;;1.52;0.90;;;20.70;99.90;;;;;;5033162;28;20034;-40
2022/07/09 10:24:00;;;;;;;1.48;0.80;;;20.70;99.90;;;;;;5033096;28;20377;-40
2022/07/09 10:26:46;;;;;;;2.83;0.75;;;20.60;99.90;;;;;;5033234;28;20022;-40
2022/07/09 10:29:24;;;;;;;1.25;0.50;;;20.50;99.90;;;;;;5033268;28;20155;-37
2022/07/09 10:31:50;;;;;;;4.70;1.20;;;20.30;99.90;;;;;;5033391;28;20205;-40
2022/07/09 10:34:31;;;;;;;0.95;0.68;;;20.20;99.90;;;;;;5015460;28;20026;-40
2022/07/09 10:37:00;;;;;;;1.15;0.70;;;20.10;99.90;;;;;;5030182;28;20481;-38
2022/07/09 10:39:26;;;;;;;4.55;0.90;;;20.00;99.90;;;;;;5032347;28;20494;-39
2022/07/09 10:42:27;;;;;;;2.20;0.70;;;19.90;99.90;;;;;;5031977;28;20116;-40
2022/07/09 10:44:53;;;;;;;2.15;0.63;;;20.00;99.90;;;;;;4971377;28;20178;-40
2022/07/09 10:47:20;;;;;;;3.10;0.60;;;20.20;99.90;;;;;;5019362;28;20141;-39
2022/07/09 10:49:46;;;;;;;0.70;0.70;;;20.30;99.90;;;;;;5030677;28;20037;-39
2022/07/09 10:52:11;;;;;;;0.57;0.57;;;20.50;99.90;;;;;;5032092;28;20026;-40
2022/07/09 10:54:48;;;;;;;1.02;0.60;;;20.90;99.90;;;;;;5032989;28;20037;-39
2022/07/09 10:57:14;;;;;;;1.13;0.97;;;21.30;99.90;;;;;;5027097;28;20536;-40
2022/07/09 10:59:45;;;;;;;1.40;0.40;;;21.60;99.90;;;;;;5032822;28;20041;-40
2022/07/09 11:02:36;;;;;;;5.65;1.20;;;21.90;99.90;;;;;;5033182;28;20376;-39
2022/07/09 11:05:03;;;;;;;2.22;0.80;;;21.90;99.90;;;;;;5015135;28;20041;-38
2022/07/09 11:07:31;;;;;;;2.77;0.73;;;21.80;99.90;;;;;;5032704;28;20358;-39
2022/07/09 11:09:56;;;;;;;;;;;21.50;99.90;;;;;;5028494;28;20033;-38
2022/07/09 11:12:22;;;;;;;4.43;1.27;;;21.20;99.90;;;;;;5032667;28;19913;-56
2022/07/09 11:14:49;;;;;;;2.10;1.10;;;20.90;99.90;;;;;;5032776;28;20075;-40
2022/07/09 11:17:21;;;;;;;1.40;1.15;;;20.70;99.90;;;;;;5032672;28;20029;-39
2022/07/09 11:19:48;;;;;;;1.08;0.73;;;20.80;99.90;;;;;;5032986;28;20517;-45
2022/07/09 11:22:17;;;;;;;5.57;1.23;;;20.80;99.90;;;;;;5032877;28;20470;-40
2022/07/09 11:24:43;;;;;;;1.83;0.82;;;20.90;99.90;;;;;;5032817;28;20061;-40
2022/07/09 11:27:09;;;;;;;1.10;1.00;;;20.90;99.90;;;;;;5031860;28;20444;-39
2022/07/09 11:29:36;;;;;;;1.67;1.17;;;20.90;99.90;;;;;;5032750;28;20034;-40
2022/07/09 11:32:02;;;;;;;4.60;1.20;;;20.70;99.90;;;;;;5014467;28;20025;-35
2022/07/09 11:34:31;;;;;;;5.80;1.25;;;20.50;99.90;;;;;;5032792;28;20037;-38
2022/07/09 11:36:58;;;;;;;8.30;1.00;;;20.20;99.90;;;;;;5035337;28;20073;-37
2022/07/09 11:39:31;;;;;;;6.93;1.23;;;20.20;99.90;;;;;;5035964;28;20544;-39
2022/07/09 11:41:58;;;;;;;2.38;0.68;;;20.30;99.90;;;;;;5035967;28;20036;-38
2022/07/09 11:44:25;;;;;;;3.35;1.10;;;20.50;99.90;;;;;;5035268;28;20036;-40
2022/07/09 11:47:07;;;;;;;2.60;1.20;;;20.90;99.90;;;;;;5035775;28;20038;-39
2022/07/09 11:49:43;;;;;;;1.95;1.00;;;21.30;99.90;;;;;;5036171;28;20271;-39
2022/07/09 11:52:45;;;;;;;1.60;0.68;;;21.50;99.90;;;;;;5036106;28;20126;-39
2022/07/09 11:55:12;;;;;;;2.30;1.02;;;21.80;99.90;;;;;;5019715;28;20050;-39
2022/07/09 11:57:38;;;;;;;1.50;1.02;;;22.00;99.90;;;;;;5035976;28;20489;-39
2022/07/09 12:00:19;;;;;;;2.05;0.90;;;22.20;99.90;;;;;;5035203;28;20033;-38
2022/07/09 12:02:45;;;;;;;7.78;1.05;;;22.40;99.90;;;;;;5015880;28;20121;-39
2022/07/09 12:05:11;;;;;;;5.35;0.90;;;22.20;99.90;;;;;;5028942;28;20092;-39
2022/07/09 12:07:37;;;;;;;0.90;0.82;;;22.10;99.90;;;;;;5035695;28;20531;-39
2022/07/09 12:10:05;;;;;;;1.45;0.85;;;22.00;99.90;;;;;;5035345;28;20064;-40
2022/07/09 12:12:32;;;;;;;3.20;0.90;;;22.00;99.90;;;;;;5034806;28;20366;-39
2022/07/09 12:14:59;;;;;;;0.88;0.47;;;21.90;99.90;;;;;;5016656;28;20511;-39
2022/07/09 12:17:27;;;;;;;1.42;0.50;;;21.90;99.90;;;;;;5033560;28;20034;-45
2022/07/09 12:19:53;;;;;;;3.75;0.73;;;22.00;99.90;;;;;;5035175;28;20108;-40
2022/07/09 12:22:19;;;;;;;2.13;0.82;;;22.00;99.90;;;;;;5034507;28;20581;-49
2022/07/09 12:24:45;;;;;;;2.45;0.70;;;22.20;99.90;;;;;;5034348;28;20061;-41
2022/07/09 12:27:10;;;;;;;7.20;1.27;;;22.40;99.90;;;;;;5034574;28;20575;-39
2022/07/09 12:29:36;;;;;;;1.27;1.10;;;22.50;99.90;;;;;;5034431;28;20425;-39
2022/07/09 12:32:02;;;;;;;4.57;1.23;;;22.40;99.90;;;;;;5034349;28;20028;-39
2022/07/09 12:34:28;;;;;;;1.67;1.00;;;22.40;99.90;;;;;;5032296;28;20508;-38
2022/07/09 12:36:54;;;;;;;1.00;0.98;;;22.10;99.90;;;;;;5018168;28;20061;-39
2022/07/09 12:39:20;;;;;;;0.68;0.68;;;22.10;99.90;;;;;;5033147;28;20041;-39